createdAt,value
2023-02-11T00:03:43.907Z,98706.44
2023-02-11T00:06:12.247Z,98732.09
2023-02-11T00:08:40.646Z,98730.66
2023-02-11T00:11:09.292Z,98710.88
2023-02-11T00:13:38.675Z,98722.03
2023-02-11T00:16:07.947Z,98722.22
2023-02-11T00:18:36.537Z,98704.41
2023-02-11T00:21:07.504Z,98706.78
2023-02-11T00:23:35.404Z,98705.38
2023-02-11T00:26:03.362Z,98736.19
2023-02-11T00:28:31.419Z,98729.56
2023-02-11T00:31:02.715Z,98710.56
2023-02-11T00:33:30.878Z,98708.13
2023-02-11T00:35:58.851Z,98717.75
2023-02-11T00:38:26.817Z,98717.53
2023-02-11T00:40:54.766Z,98727.91
2023-02-11T00:43:22.861Z,98710.13
2023-02-11T00:45:51.091Z,98715.72
2023-02-11T00:48:20.852Z,98714.91
2023-02-11T00:50:48.745Z,98720.09
2023-02-11T00:53:16.812Z,98732.06
2023-02-11T00:55:44.630Z,98744.06
2023-02-11T00:58:12.615Z,98733.69
2023-02-11T01:00:40.524Z,98728.47
2023-02-11T01:03:08.472Z,98731.91
2023-02-11T01:05:37.899Z,98725.28
2023-02-11T01:08:06.080Z,98729.50
2023-02-11T01:10:34.111Z,98747.91
2023-02-11T01:13:02.677Z,98738.88
2023-02-11T01:15:30.881Z,98743.44
2023-02-11T01:17:58.813Z,98754.69
2023-02-11T01:20:27.361Z,98739.06
2023-02-11T01:22:56.708Z,98759.22
2023-02-11T01:25:24.739Z,98758.03
2023-02-11T01:27:53.287Z,98762.41
2023-02-11T01:30:21.214Z,98756.56
2023-02-11T01:32:49.247Z,98763.16
2023-02-11T01:35:17.267Z,98753.31
2023-02-11T01:37:45.333Z,98759.16
2023-02-11T01:40:15.780Z,98751.97
2023-02-11T01:42:44.224Z,98768.94
2023-02-11T01:45:30.785Z,98766.34
2023-02-11T01:47:58.845Z,98769.31
2023-02-11T01:50:26.872Z,98774.75
2023-02-11T01:53:14.998Z,98763.59
2023-02-11T01:56:02.028Z,98754.50
2023-02-11T01:58:30.303Z,98773.56
2023-02-11T02:00:58.988Z,98754.22
2023-02-11T02:03:27.326Z,98765.66
2023-02-11T02:05:58.144Z,98759.88
2023-02-11T02:08:32.308Z,98758.88
2023-02-11T02:11:01.966Z,98761.50
2023-02-11T02:13:31.770Z,98766.72
2023-02-11T02:16:21.213Z,98767.56
2023-02-11T02:18:53.469Z,98765.56
2023-02-11T02:21:43.509Z,98765.97
2023-02-11T02:24:32.807Z,98756.38
2023-02-11T02:27:20.728Z,98754.53
2023-02-11T02:30:15.482Z,98759.53
2023-02-11T02:32:57.838Z,98774.41
2023-02-11T02:35:29.738Z,98763.56
2023-02-11T02:38:01.449Z,98755.16
2023-02-11T02:40:32.370Z,98765.19
2023-02-11T02:43:02.294Z,98763.59
2023-02-11T02:45:30.296Z,98761.16
2023-02-11T02:47:59.714Z,98770.78
2023-02-11T02:50:30.405Z,98765.97
2023-02-11T02:53:04.638Z,98752.78
2023-02-11T02:55:38.657Z,98761.59
2023-02-11T02:58:12.658Z,98745.97
2023-02-11T03:00:44.340Z,98759.97
2023-02-11T03:03:23.004Z,98768.16
2023-02-11T03:05:54.758Z,98747.75
2023-02-11T03:08:26.559Z,98759.75
2023-02-11T03:10:55.652Z,98748.34
2023-02-11T03:13:25.957Z,98752.53
2023-02-11T03:15:56.529Z,98758.75
2023-02-11T03:18:27.971Z,98760.94
2023-02-11T03:20:57.718Z,98759.94
2023-02-11T03:23:29.699Z,98757.13
2023-02-11T03:25:59.550Z,98762.31
2023-02-11T03:34:23.331Z,98750.38
2023-02-11T03:36:53.334Z,98740.75
2023-02-11T03:39:23.913Z,98739.28
2023-02-11T03:41:53.218Z,98728.03
2023-02-11T03:44:22.833Z,98734.63
2023-02-11T03:46:53.160Z,98734.22
2023-02-11T03:49:23.386Z,98728.38
2023-02-11T03:51:52.652Z,98726.53
2023-02-11T03:54:22.649Z,98731.09
2023-02-11T03:56:53.870Z,98724.69
2023-02-11T03:59:21.902Z,98728.66
2023-02-11T04:01:50.325Z,98724.03
2023-02-11T04:04:18.664Z,98714.22
2023-02-11T04:06:48.196Z,98717.22
2023-02-11T04:09:16.200Z,98723.63
2023-02-11T04:11:44.380Z,98721.91
2023-02-11T04:14:12.366Z,98714.13
2023-02-11T04:16:40.446Z,98719.28
2023-02-11T04:19:08.412Z,98732.31
2023-02-11T04:21:39.767Z,98731.69
2023-02-11T04:24:09.333Z,98722.41
2023-02-11T04:26:37.388Z,98718.41
2023-02-11T04:29:05.396Z,98716.00
2023-02-11T04:31:33.370Z,98710.81
2023-02-11T04:34:01.418Z,98706.16
2023-02-11T04:36:29.568Z,98715.41
2023-02-11T04:38:57.543Z,98706.78
2023-02-11T04:41:26.968Z,98710.31
2023-02-11T04:43:54.871Z,98710.16
2023-02-11T04:46:23.016Z,98722.16
2023-02-11T04:48:51.060Z,98720.03
2023-02-11T04:51:19.101Z,98712.19
2023-02-11T04:53:47.382Z,98707.00
2023-02-11T04:56:15.473Z,98719.44
2023-02-11T04:58:45.053Z,98737.63
2023-02-11T05:01:14.521Z,98718.09
2023-02-11T05:03:42.931Z,98731.94
2023-02-11T05:06:11.855Z,98731.44
2023-02-11T05:08:40.270Z,98724.09
2023-02-11T05:11:09.169Z,98717.97
2023-02-11T05:13:37.278Z,98715.97
2023-02-11T05:16:07.055Z,98717.81
2023-02-11T05:18:35.150Z,98728.41
2023-02-11T05:21:07.128Z,98720.53
2023-02-11T05:23:35.450Z,98731.91
2023-02-11T05:26:03.638Z,98722.69
2023-02-11T05:28:31.994Z,98721.72
2023-02-11T05:31:00.242Z,98725.19
2023-02-11T05:33:29.772Z,98723.41
2023-02-11T05:35:59.661Z,98716.81
2023-02-11T05:38:27.631Z,98717.84
2023-02-11T05:40:55.868Z,98721.66
2023-02-11T05:43:24.034Z,98718.47
2023-02-11T05:45:52.478Z,98712.88
2023-02-11T05:48:20.731Z,98719.47
2023-02-11T05:50:50.206Z,98727.50
2023-02-11T05:53:18.177Z,98718.09
2023-02-11T05:55:46.366Z,98714.28
2023-02-11T05:58:14.378Z,98721.91
2023-02-11T06:00:42.677Z,98724.91
2023-02-11T06:03:10.750Z,98733.13
2023-02-11T06:05:38.911Z,98721.72
2023-02-11T06:08:08.420Z,98723.69
2023-02-11T06:10:36.627Z,98722.28
2023-02-11T06:13:04.652Z,98721.06
2023-02-11T06:15:32.822Z,98728.91
2023-02-11T06:18:00.697Z,98716.69
2023-02-11T06:20:29.088Z,98714.47
2023-02-11T06:22:57.281Z,98711.50
2023-02-11T06:25:26.950Z,98725.53
2023-02-11T06:27:55.299Z,98723.31
2023-02-11T06:30:23.406Z,98720.72
2023-02-11T06:32:51.664Z,98727.69
2023-02-11T06:35:19.948Z,98719.31
2023-02-11T06:37:49.908Z,98716.69
2023-02-11T06:40:17.948Z,98711.91
2023-02-11T06:42:47.233Z,98715.72
2023-02-11T06:45:15.479Z,98716.91
2023-02-11T06:47:43.392Z,98708.50
2023-02-11T06:50:13.471Z,98717.31
2023-02-11T06:52:41.468Z,98698.50
2023-02-11T06:55:09.742Z,98704.91
2023-02-11T07:03:08.688Z,98724.16
2023-02-11T07:05:38.792Z,98697.50
2023-02-11T07:08:06.781Z,98718.50
2023-02-11T07:10:35.338Z,98715.50
2023-02-11T07:13:03.364Z,98723.50
2023-02-11T07:15:31.486Z,98719.88
2023-02-11T07:17:59.880Z,98712.66
2023-02-11T07:20:29.409Z,98717.41
2023-02-11T07:22:57.609Z,98713.66
2023-02-11T07:25:25.666Z,98699.59
2023-02-11T07:27:53.649Z,98708.00
2023-02-11T07:30:21.724Z,98711.91
2023-02-11T07:32:50.259Z,98704.88
2023-02-11T07:35:18.327Z,98710.84
2023-02-11T07:37:47.802Z,98694.84
2023-02-11T07:40:15.785Z,98703.97
2023-02-11T07:42:43.930Z,98703.47
2023-02-11T07:45:12.766Z,98698.06
2023-02-11T07:47:42.863Z,98684.44
2023-02-11T07:50:11.151Z,98692.81
2023-02-11T07:52:39.290Z,98691.31
2023-02-11T07:55:10.221Z,98699.69
2023-02-11T07:57:38.424Z,98699.75
2023-02-11T08:00:07.161Z,98692.91
2023-02-11T08:02:35.478Z,98693.81
2023-02-11T08:05:03.576Z,98692.81
2023-02-11T08:07:31.646Z,98680.38
2023-02-11T08:09:59.720Z,98678.03
2023-02-11T08:12:29.110Z,98673.38
2023-02-11T08:14:57.162Z,98677.78
2023-02-11T08:17:25.336Z,98675.34
2023-02-11T08:19:53.514Z,98667.25
2023-02-11T08:22:21.801Z,98664.34
2023-02-11T08:24:52.321Z,98657.38
2023-02-11T08:27:20.683Z,98644.63
2023-02-11T08:29:50.091Z,98650.53
2023-02-11T08:32:18.110Z,98661.72
2023-02-11T08:34:46.353Z,98643.50
2023-02-11T08:37:14.590Z,98649.56
2023-02-11T08:39:42.599Z,98652.41
2023-02-11T08:42:10.515Z,98635.97
2023-02-11T08:44:38.744Z,98642.22
2023-02-11T08:47:08.619Z,98640.47
2023-02-11T08:49:36.704Z,98632.19
2023-02-11T08:52:05.139Z,98621.56
2023-02-11T08:54:33.590Z,98605.00
2023-02-11T08:57:02.189Z,98598.69
2023-02-11T08:59:30.207Z,98604.22
2023-02-11T09:01:58.254Z,98594.56
2023-02-11T09:04:27.925Z,98596.09
2023-02-11T09:06:55.966Z,98588.84
2023-02-11T09:09:24.436Z,98577.34
2023-02-11T09:11:57.368Z,98578.69
2023-02-11T09:14:26.306Z,98563.06
2023-02-11T09:16:54.542Z,98548.84
2023-02-11T09:19:23.278Z,98551.69
2023-02-11T09:21:52.852Z,98539.63
2023-02-11T09:24:20.718Z,98544.84
2023-02-11T09:26:49.699Z,98534.75
2023-02-11T09:29:18.133Z,98524.78
2023-02-11T09:31:46.411Z,98519.13
2023-02-11T09:34:16.147Z,98521.56
2023-02-11T09:36:44.389Z,98513.38
2023-02-11T09:39:15.698Z,98509.44
2023-02-11T09:41:53.917Z,98508.38
2023-02-11T09:44:23.775Z,98506.25
2023-02-11T09:46:56.116Z,98500.28
2023-02-11T09:49:26.607Z,98507.69
2023-02-11T09:51:58.704Z,98494.78
2023-02-11T09:54:32.200Z,98496.72
2023-02-11T09:57:00.270Z,98496.88
2023-02-11T09:59:28.208Z,98481.22
2023-02-11T10:01:58.666Z,98486.97
2023-02-11T10:04:38.024Z,98483.47
2023-02-11T10:07:12.380Z,98473.78
2023-02-11T10:09:50.879Z,98469.91
2023-02-11T10:12:27.873Z,98477.53
2023-02-11T10:15:10.591Z,98465.22
2023-02-11T10:17:44.373Z,98464.31
2023-02-11T10:22:59.197Z,98459.59
2023-02-11T10:25:29.384Z,98446.06
2023-02-11T10:27:59.324Z,98443.72
2023-02-11T10:30:30.429Z,98436.59
2023-02-11T10:33:01.859Z,98424.34
2023-02-11T10:35:30.146Z,98414.34
2023-02-11T10:37:58.433Z,98426.47
2023-02-11T10:40:27.939Z,98404.00
2023-02-11T10:42:59.525Z,98405.84
2023-02-11T10:45:29.905Z,98398.16
2023-02-11T10:47:59.557Z,98394.00
2023-02-11T10:50:29.712Z,98383.44
2023-02-11T10:53:12.864Z,98387.56
2023-02-11T10:55:40.888Z,98373.84
2023-02-11T10:58:24.660Z,98372.88
2023-02-11T11:00:54.094Z,98382.22
2023-02-11T11:03:23.249Z,98354.69
2023-02-11T11:05:52.310Z,98368.03
2023-02-11T11:08:20.975Z,98352.34
2023-02-11T11:10:50.516Z,98351.56
2023-02-11T11:13:30.534Z,98351.50
2023-02-11T11:16:17.302Z,98345.78
2023-02-11T11:18:46.282Z,98332.38
2023-02-11T11:21:16.241Z,98334.81
2023-02-11T11:23:49.579Z,98336.19
2023-02-11T11:26:18.271Z,98337.19
2023-02-11T11:28:54.877Z,98297.56
2023-02-11T11:31:25.784Z,98307.44
2023-02-11T11:33:55.707Z,98292.34
2023-02-11T11:36:25.199Z,98287.25
2023-02-11T11:38:55.785Z,98290.50
2023-02-11T11:41:28.035Z,98286.16
2023-02-11T11:43:58.472Z,98281.41
2023-02-11T11:46:28.605Z,98259.28
2023-02-11T11:48:59.957Z,98275.97
2023-02-11T11:51:29.150Z,98272.09
2023-02-11T11:54:00.152Z,98265.47
2023-02-11T11:56:30.226Z,98259.50
2023-02-11T11:59:02.079Z,98262.47
2023-02-11T12:01:35.655Z,98249.16
2023-02-11T12:04:21.549Z,98246.31
2023-02-11T12:06:54.713Z,98245.22
2023-02-11T12:09:28.170Z,98234.56
2023-02-11T12:12:17.608Z,98237.72
2023-02-11T12:14:51.234Z,98238.09
2023-02-11T12:17:26.119Z,98247.09
2023-02-11T12:19:59.521Z,98204.69
2023-02-11T12:22:34.661Z,98232.47
2023-02-11T12:25:11.243Z,98236.31
2023-02-11T12:27:45.479Z,98204.16
2023-02-11T12:30:24.207Z,98216.59
2023-02-11T12:32:56.990Z,98217.13
2023-02-11T12:35:32.789Z,98213.69
2023-02-11T12:38:16.102Z,98193.84
2023-02-11T12:40:46.428Z,98201.31
2023-02-11T12:43:22.067Z,98189.34
2023-02-11T12:46:04.939Z,98173.75
2023-02-11T12:48:42.062Z,98182.81
2023-02-11T12:51:15.513Z,98165.25
2023-02-11T12:53:49.329Z,98164.50
2023-02-11T12:56:20.842Z,98153.06
2023-02-11T12:58:50.203Z,98158.19
2023-02-11T13:01:22.385Z,98119.78
2023-02-11T13:03:55.414Z,98134.19
2023-02-11T13:06:26.281Z,98129.19
2023-02-11T13:08:56.102Z,98119.91
2023-02-11T13:11:25.894Z,98119.25
2023-02-11T13:13:54.932Z,98087.81
2023-02-11T13:16:29.750Z,98084.88
2023-02-11T13:19:04.193Z,98080.47
2023-02-11T13:21:49.902Z,98094.38
2023-02-11T13:24:23.689Z,98085.00
2023-02-11T13:26:56.229Z,98074.09
2023-02-11T13:29:30.713Z,98067.28
2023-02-11T13:32:07.406Z,98062.44
2023-02-11T13:40:24.614Z,98049.75
2023-02-11T13:42:53.384Z,98032.44
2023-02-11T13:45:29.191Z,98024.59
2023-02-11T13:47:58.324Z,98020.94
2023-02-11T13:50:27.325Z,98010.84
2023-02-11T13:52:59.686Z,98006.88
2023-02-11T13:55:29.577Z,98004.28
2023-02-11T13:58:12.390Z,97994.94
2023-02-11T14:00:48.768Z,97974.19
2023-02-11T14:03:48.165Z,97970.88
2023-02-11T14:06:35.009Z,97970.66
2023-02-11T14:09:09.130Z,97951.88
2023-02-11T14:11:52.695Z,97937.38
2023-02-11T14:14:24.047Z,97942.03
2023-02-11T14:17:25.194Z,97935.66
2023-02-11T14:19:53.825Z,97883.28
2023-02-11T14:25:06.957Z,97919.91
2023-02-11T14:27:42.830Z,97915.72
2023-02-11T14:30:15.180Z,97889.00
2023-02-11T14:32:49.920Z,97889.91
2023-02-11T14:35:23.938Z,97873.72
2023-02-11T14:37:57.082Z,97879.50
2023-02-11T14:40:28.972Z,97870.34
2023-02-11T14:42:59.518Z,97846.44
2023-02-11T14:45:28.995Z,97858.44
2023-02-11T14:48:02.922Z,97842.16
2023-02-11T14:50:35.202Z,97842.81
2023-02-11T14:53:06.374Z,97835.25
2023-02-11T14:55:35.811Z,97824.16
2023-02-11T14:58:14.714Z,97828.81
2023-02-11T15:00:50.308Z,97833.34
2023-02-11T15:03:32.461Z,97816.78
2023-02-11T15:06:01.568Z,97811.72
2023-02-11T15:08:39.607Z,97793.50
2023-02-11T15:11:11.866Z,97793.28
2023-02-11T15:13:48.158Z,97805.94
2023-02-11T15:16:19.814Z,97787.72
2023-02-11T15:18:49.612Z,97774.84
2023-02-11T15:21:21.941Z,97774.59
2023-02-11T15:23:56.779Z,97773.94
2023-02-11T15:26:24.807Z,97772.44
2023-02-11T15:28:54.327Z,97771.00
2023-02-11T15:31:24.455Z,97761.16
2023-02-11T15:33:53.119Z,97763.75
2023-02-11T15:36:21.837Z,97756.28
2023-02-11T15:39:04.726Z,97754.94
2023-02-11T15:41:36.904Z,97755.59
2023-02-11T15:44:06.435Z,97730.38
2023-02-11T15:46:38.019Z,97749.50
2023-02-11T15:49:08.096Z,97729.94
2023-02-11T15:51:37.797Z,97728.22
2023-02-11T15:54:07.303Z,97727.66
2023-02-11T15:56:43.235Z,97724.16
2023-02-11T15:59:16.701Z,97731.03
2023-02-11T16:01:45.626Z,97719.59
2023-02-11T16:04:20.742Z,97711.66
2023-02-11T16:06:49.606Z,97695.03
2023-02-11T16:09:25.282Z,97718.47
2023-02-11T16:11:58.304Z,97713.59
2023-02-11T16:14:31.584Z,97709.53
2023-02-11T16:17:01.425Z,97705.13
2023-02-11T16:19:29.932Z,97693.44
2023-02-11T16:21:58.937Z,97692.31
2023-02-11T16:24:29.224Z,97696.81
2023-02-11T16:26:59.042Z,97682.22
2023-02-11T16:29:28.197Z,97690.03
2023-02-11T16:32:07.374Z,97668.97
2023-02-11T16:34:35.798Z,97669.53
2023-02-11T16:37:05.171Z,97646.09
2023-02-11T16:39:33.337Z,97671.25
2023-02-11T16:42:01.786Z,97667.41
2023-02-11T16:44:30.275Z,97657.09
2023-02-11T16:47:00.380Z,97652.19
2023-02-11T16:49:29.363Z,97648.59
2023-02-11T16:54:49.834Z,97634.88
2023-02-11T16:57:19.413Z,97622.84
2023-02-11T16:59:47.582Z,97613.91
2023-02-11T17:02:18.178Z,97608.38
2023-02-11T17:04:46.502Z,97635.44
2023-02-11T17:07:14.624Z,97605.19
2023-02-11T17:09:42.712Z,97608.38
2023-02-11T17:12:10.584Z,97622.88
2023-02-11T17:14:38.893Z,97581.06
2023-02-11T17:17:06.902Z,97578.94
2023-02-11T17:19:36.303Z,97603.47
2023-02-11T17:22:04.449Z,97594.75
2023-02-11T17:24:32.607Z,97567.09
2023-02-11T17:27:00.623Z,97583.75
2023-02-11T17:29:28.700Z,97575.94
2023-02-11T17:31:57.257Z,97571.53
2023-02-11T17:34:25.410Z,97555.09
2023-02-11T17:36:54.921Z,97555.09
2023-02-11T17:39:22.940Z,97559.28
2023-02-11T17:41:51.008Z,97556.53
2023-02-11T17:44:19.080Z,97547.59
2023-02-11T17:46:47.160Z,97543.53
2023-02-11T17:49:15.898Z,97547.25
2023-02-11T17:51:43.956Z,97538.16
2023-02-11T17:54:14.142Z,97521.34
2023-02-11T17:56:42.664Z,97516.91
2023-02-11T17:59:11.831Z,97504.84
2023-02-11T18:01:40.750Z,97533.50
2023-02-11T18:04:09.724Z,97502.25
2023-02-11T18:06:37.770Z,97498.28
2023-02-11T18:09:05.784Z,97502.25
2023-02-11T18:11:36.082Z,97505.16
2023-02-11T18:14:04.795Z,97491.91
2023-02-11T18:16:35.164Z,97487.63
2023-02-11T18:19:03.657Z,97480.06
2023-02-11T18:21:31.647Z,97464.41
2023-02-11T18:24:05.846Z,97461.50
2023-02-11T18:26:36.509Z,97459.28
2023-02-11T18:29:06.326Z,97449.09
2023-02-11T18:31:35.463Z,97444.19
2023-02-11T18:34:03.810Z,97450.44
2023-02-11T18:36:31.934Z,97436.13
2023-02-11T18:39:00.772Z,97434.56
2023-02-11T18:41:28.988Z,97441.81
2023-02-11T18:44:03.292Z,97412.13
2023-02-11T18:46:31.849Z,97434.09
2023-02-11T18:48:59.901Z,97413.06
2023-02-11T18:51:28.022Z,97406.25
2023-02-11T18:53:56.239Z,97399.00
2023-02-11T18:56:24.797Z,97417.56
2023-02-11T18:58:53.031Z,97394.81
2023-02-11T19:01:24.605Z,97402.06
2023-02-11T19:03:53.030Z,97388.47
2023-02-11T19:06:22.569Z,97382.25
2023-02-11T19:08:50.702Z,97386.25
2023-02-11T19:11:19.972Z,97393.34
2023-02-11T19:13:48.989Z,97379.53
2023-02-11T19:16:20.090Z,97369.59
2023-02-11T19:18:49.605Z,97375.56
2023-02-11T19:21:17.540Z,97371.00
2023-02-11T19:23:45.715Z,97361.28
2023-02-11T19:26:13.632Z,97365.47
2023-02-11T19:28:41.530Z,97365.78
2023-02-11T19:31:10.237Z,97375.22
2023-02-11T19:33:38.480Z,97364.13
2023-02-11T19:36:09.848Z,97354.38
2023-02-11T19:38:38.076Z,97339.41
2023-02-11T19:41:06.402Z,97342.34
2023-02-11T19:43:34.353Z,97346.00
2023-02-11T19:46:02.807Z,97340.81
2023-02-11T19:48:30.759Z,97352.25
2023-02-11T19:50:58.857Z,97345.69
2023-02-11T19:53:28.153Z,97338.41
2023-02-11T19:55:56.117Z,97346.50
2023-02-11T19:58:24.093Z,97328.91
2023-02-11T20:00:52.084Z,97350.72
2023-02-11T20:03:20.176Z,97336.91
2023-02-11T20:05:54.754Z,97341.88
2023-02-11T20:08:23.058Z,97317.38
2023-02-11T20:10:52.558Z,97319.50
2023-02-11T20:13:20.476Z,97314.38
2023-02-11T20:15:48.351Z,97317.25
2023-02-11T20:18:16.299Z,97307.84
2023-02-11T20:20:44.261Z,97299.22
2023-02-11T20:23:12.257Z,97301.25
2023-02-11T20:25:40.902Z,97298.44
2023-02-11T20:28:10.372Z,97292.00
2023-02-11T20:30:39.659Z,97288.84
2023-02-11T20:33:07.703Z,97290.16
2023-02-11T20:35:35.625Z,97286.78
2023-02-11T20:38:04.145Z,97284.44
2023-02-11T20:40:32.162Z,97281.81
2023-02-11T20:43:00.244Z,97281.56
2023-02-11T20:45:29.655Z,97273.19
2023-02-11T20:47:57.659Z,97270.28
2023-02-11T20:50:25.715Z,97272.09
2023-02-11T20:52:53.676Z,97267.50
2023-02-11T20:55:21.748Z,97275.88
2023-02-11T20:57:49.767Z,97282.66
2023-02-11T21:00:18.540Z,97274.09
2023-02-11T21:02:51.735Z,97279.50
2023-02-11T21:05:19.815Z,97262.34
2023-02-11T21:07:47.659Z,97279.59
2023-02-11T21:10:15.556Z,97275.38
2023-02-11T21:12:43.547Z,97283.28
2023-02-11T21:15:12.761Z,97278.03
2023-02-11T21:17:40.751Z,97282.69
2023-02-11T21:20:10.821Z,97276.22
2023-02-11T21:22:38.710Z,97262.34
2023-02-11T21:25:07.146Z,97276.56
2023-02-11T21:27:35.071Z,97277.53
2023-02-11T21:30:03.213Z,97259.25
2023-02-11T21:32:31.462Z,97263.66
2023-02-11T21:35:02.086Z,97267.38
2023-02-11T21:37:33.231Z,97269.25
2023-02-11T21:40:01.136Z,97262.72
2023-02-11T21:42:29.078Z,97261.69
2023-02-11T21:44:56.947Z,97267.38
2023-02-11T21:47:24.844Z,97261.69
2023-02-11T21:49:52.803Z,97260.91
2023-02-11T21:52:20.708Z,97252.81
2023-02-11T21:54:52.122Z,97255.34
2023-02-11T21:57:20.031Z,97260.91
2023-02-11T21:59:48.047Z,97256.72
2023-02-11T22:02:16.044Z,97248.56
2023-02-11T22:04:44.061Z,97251.84
2023-02-11T22:07:12.772Z,97257.53
2023-02-11T22:09:40.873Z,97260.91
2023-02-11T22:12:10.361Z,97247.34
2023-02-11T22:14:38.604Z,97246.31
2023-02-11T22:17:08.834Z,97240.59
2023-02-11T22:19:36.817Z,97257.75
2023-02-11T22:22:05.093Z,97263.75
2023-02-11T22:24:33.059Z,97256.09
2023-02-11T22:27:01.136Z,97250.97
2023-02-11T22:29:30.417Z,97243.69
2023-02-11T22:31:58.335Z,97252.16
2023-02-11T22:34:26.263Z,97247.03
2023-02-11T22:36:54.194Z,97251.09
2023-02-11T22:39:22.146Z,97242.16
2023-02-11T22:41:50.148Z,97250.06
2023-02-11T22:44:21.755Z,97247.47
2023-02-11T22:46:51.173Z,97260.84
2023-02-11T22:49:20.093Z,97252.00
2023-02-11T22:51:48.198Z,97261.13
2023-02-11T22:54:16.998Z,97272.00
2023-02-11T22:56:45.184Z,97268.41
2023-02-11T22:59:15.033Z,97280.38
2023-02-11T23:01:43.627Z,97275.25
2023-02-11T23:04:14.358Z,97273.69
2023-02-11T23:06:42.332Z,97276.78
2023-02-11T23:09:12.510Z,97271.28
2023-02-11T23:11:41.072Z,97272.78
2023-02-11T23:14:12.251Z,97284.00
2023-02-11T23:16:40.484Z,97284.59
2023-02-11T23:19:09.969Z,97282.69
2023-02-11T23:21:39.966Z,97288.50
2023-02-11T23:24:09.084Z,97282.94
2023-02-11T23:26:38.513Z,97285.50
2023-02-11T23:29:06.547Z,97292.38
2023-02-11T23:31:37.650Z,97304.22
2023-02-11T23:34:05.853Z,97310.22
2023-02-11T23:36:33.966Z,97312.06
2023-02-11T23:39:03.684Z,97310.38
2023-02-11T23:41:31.670Z,97311.94
2023-02-11T23:44:00.325Z,97328.84
2023-02-11T23:46:28.861Z,97333.97
2023-02-11T23:48:57.540Z,97335.00
2023-02-11T23:51:25.435Z,97319.63
2023-02-11T23:53:56.091Z,97346.47
2023-02-11T23:56:26.185Z,97338.00
2023-02-11T23:58:55.058Z,97351.09
